Klaipėda, Lithuania

06:39 PM EEST on balandžio 26, 2017 (GMT +0300)
Sausio 15-osios gatvė | | Change Station

Elev 22 ft 55.70 °N, 21.14 °E | Updated 2 minutes ago

Geras oras
Geras oras
45.9 °F
Feels Like 44 °F
N
4.3
Vėjas nepastovus Vėjas from Pietų-pietvakarių
Gusts 11.2 mph

Šiandien
High -- | Low -- °F
--% Chance of Precip.
Yesterday
High -- | Low -- °F
Precip. -- in
Slėgis 29.83 in
Matomumas 6.2 mylios
Debesys Debesuota 2600 ft
Debesuota 3000 ft
Šaltas vėjas 44 °F
Rasos taškas 39 °F
Drėgmė 78%
Krituliai Not available.
Sniego dangos storis Not available.
6:04 AM 9:03 PM
Jaunatis, 0% visible
METAR EVLA 261520Z AUTO 24010KT 9999 BKN026/// BKN030/// 05/M00 Q1010
Slėgis 29.83 in
Matomumas 6.2 mylios
Debesys Debesuota 2600 ft
Debesuota 3000 ft
Šaltas vėjas 44 °F
Rasos taškas 39 °F
Drėgmė 78%
Krituliai Not available.
Sniego dangos storis Not available.
6:04 AM 9:03 PM
Jaunatis, 0% visible
METAR EVLA 261520Z AUTO 24010KT 9999 BKN026/// BKN030/// 05/M00 Q1010

Get Severe Weather Alerts

Thanks for signing up!

Be on the lookout for a verification email in your inbox.

You'll start receiving the daily forecast at 8 AM.

×

10-Day Weather Forecast

×

Almanac

Astronomija

Apr. 26, 2017 Rise Set
Vietos laikas
Dienos šviesa
Jūrinė diena
Astronominė diena
Mėnulis
Matomos šviesos trukmė
Dienos ilgis
Tomorrow will be .
, % of the Moon is Illuminated

Šiandienos maksimumai

Country Highs Country Lows

Community

WunderPhotos

WunderBlog® & News

Nearby

Air Quality

  Air Quality AQ Index Pollutant
Not available.

Sniego danga

Station Depth Elevation

Earthquake Activity

Miestas Distance Mag. Time & Date
Minimum magnitude displayed is 2.5.

Coastal Water Temperatures

Vieta Temperatūra

Stations

Nearby Weather Stations

Station Location Temp Šaltas vėjas Rasos taškas Drėgmė Vėjas Precip. Elev Duomenys papildyti Type